createdAt,value
2018-12-29T00:00:52.837Z,110.20
2018-12-29T00:01:52.824Z,119.30
2018-12-29T00:02:52.816Z,111.10
2018-12-29T00:03:52.837Z,113.30
2018-12-29T00:04:52.791Z,108.40
2018-12-29T00:05:52.783Z,111.90
2018-12-29T00:06:52.770Z,106.70
2018-12-29T00:07:52.760Z,109.50
2018-12-29T00:08:52.749Z,108.00
2018-12-29T00:09:52.755Z,110.10
2018-12-29T00:10:52.731Z,108.10
2018-12-29T00:11:52.717Z,115.40
2018-12-29T00:12:52.707Z,107.80
2018-12-29T00:13:52.696Z,114.10
2018-12-29T00:14:55.173Z,105.30
2018-12-29T00:15:52.676Z,102.40
2018-12-29T00:16:52.663Z,106.30
2018-12-29T00:17:52.655Z,103.80
2018-12-29T00:18:52.643Z,109.30
2018-12-29T00:19:52.634Z,103.00
2018-12-29T00:20:52.638Z,99.30
2018-12-29T00:21:52.629Z,105.40
2018-12-29T00:22:52.600Z,106.90
2018-12-29T00:23:52.592Z,107.60
2018-12-29T00:24:52.578Z,110.20
2018-12-29T00:25:52.570Z,97.50
2018-12-29T00:26:52.572Z,101.10
2018-12-29T00:27:52.548Z,101.40
2018-12-29T00:28:52.541Z,102.40
2018-12-29T00:29:52.531Z,103.70
2018-12-29T00:30:52.516Z,100.40
2018-12-29T00:31:52.520Z,100.80
2018-12-29T00:32:52.493Z,103.40
2018-12-29T00:33:52.482Z,98.70
2018-12-29T00:34:52.472Z,101.80
2018-12-29T00:35:52.463Z,112.70
2018-12-29T00:36:52.468Z,106.30
2018-12-29T00:37:52.466Z,103.60
2018-12-29T00:38:52.428Z,104.30
2018-12-29T00:39:52.421Z,112.00
2018-12-29T00:40:52.408Z,107.90
2018-12-29T00:41:52.399Z,106.20
2018-12-29T00:42:52.389Z,98.30
2018-12-29T00:43:52.401Z,104.00
2018-12-29T00:44:52.384Z,113.10
2018-12-29T00:45:52.356Z,101.60
2018-12-29T00:46:52.371Z,105.30
2018-12-29T00:47:52.333Z,108.90
2018-12-29T00:48:52.322Z,106.10
2018-12-29T00:49:52.315Z,109.80
2018-12-29T00:50:52.304Z,111.50
2018-12-29T00:51:52.291Z,110.20
2018-12-29T00:52:52.293Z,110.40
2018-12-29T00:53:52.271Z,116.70
2018-12-29T00:54:52.259Z,119.40
2018-12-29T00:55:52.248Z,114.50
2018-12-29T00:56:52.239Z,115.90
2018-12-29T00:57:52.266Z,117.70
2018-12-29T00:58:52.215Z,125.60
2018-12-29T00:59:52.208Z,123.10
2018-12-29T01:00:52.197Z,118.30
2018-12-29T01:01:52.183Z,116.80
2018-12-29T01:02:52.176Z,115.60
2018-12-29T01:03:52.176Z,119.30
2018-12-29T01:04:52.152Z,114.50
2018-12-29T01:05:52.154Z,110.80
2018-12-29T01:06:52.132Z,113.40
2018-12-29T01:07:52.119Z,117.70
2018-12-29T01:08:52.109Z,114.30
2018-12-29T01:09:52.100Z,109.60
2018-12-29T01:10:52.102Z,112.10
2018-12-29T01:11:52.079Z,109.60
2018-12-29T01:12:52.068Z,113.80
2018-12-29T01:13:52.055Z,108.20
2018-12-29T01:14:52.047Z,114.40
2018-12-29T01:15:52.052Z,113.40
2018-12-29T01:16:52.023Z,119.20
2018-12-29T01:17:52.015Z,117.90
2018-12-29T01:18:52.015Z,111.70
2018-12-29T01:19:52.027Z,107.90
2018-12-29T01:20:51.983Z,108.30
2018-12-29T01:21:51.972Z,106.90
2018-12-29T01:22:51.962Z,112.80
2018-12-29T01:23:51.950Z,112.70
2018-12-29T01:24:51.940Z,109.60
2018-12-29T01:25:51.941Z,113.20
2018-12-29T01:26:51.921Z,106.70
2018-12-29T01:27:51.906Z,107.50
2018-12-29T01:28:51.898Z,113.80
2018-12-29T01:29:51.890Z,108.70
2018-12-29T01:30:51.890Z,107.80
2018-12-29T01:31:51.879Z,112.70
2018-12-29T01:32:51.855Z,109.20
2018-12-29T01:33:51.842Z,107.80
2018-12-29T01:34:51.936Z,105.60
2018-12-29T01:35:51.823Z,101.50
2018-12-29T01:36:51.812Z,95.90
2018-12-29T01:37:51.801Z,96.90
2018-12-29T01:38:51.805Z,107.20
2018-12-29T01:39:51.781Z,113.90
2018-12-29T01:40:51.781Z,108.40
2018-12-29T01:41:51.757Z,102.30
2018-12-29T01:42:51.750Z,103.60
2018-12-29T01:43:51.751Z,103.10
2018-12-29T01:44:51.725Z,103.10
2018-12-29T01:45:51.713Z,106.80
2018-12-29T01:46:51.705Z,112.80
2018-12-29T01:47:51.694Z,103.90
2018-12-29T01:48:51.682Z,114.40
2018-12-29T01:49:51.684Z,119.70
2018-12-29T01:50:51.661Z,113.30
2018-12-29T01:51:51.650Z,112.10
2018-12-29T01:52:51.639Z,126.30
2018-12-29T01:53:51.629Z,130.70
2018-12-29T01:54:51.630Z,116.60
2018-12-29T01:55:51.605Z,114.80
2018-12-29T01:56:51.598Z,117.70
2018-12-29T01:57:51.586Z,118.50
2018-12-29T01:58:51.577Z,127.90
2018-12-29T01:59:51.580Z,118.70
2018-12-29T02:00:51.553Z,116.60
2018-12-29T02:01:51.571Z,111.50
2018-12-29T02:02:51.532Z,116.80
2018-12-29T02:03:51.522Z,117.90
2018-12-29T02:04:51.517Z,113.60
2018-12-29T02:05:51.500Z,116.20
2018-12-29T02:06:51.492Z,113.70
2018-12-29T02:07:51.493Z,114.50
2018-12-29T02:08:51.470Z,116.30
2018-12-29T02:09:51.457Z,120.40
2018-12-29T02:10:51.463Z,120.40
2018-12-29T02:11:51.443Z,115.40
2018-12-29T02:12:51.438Z,117.00
2018-12-29T02:13:51.417Z,134.70
2018-12-29T02:14:51.404Z,119.90
2018-12-29T02:15:51.408Z,125.80
2018-12-29T02:16:51.384Z,119.00
2018-12-29T02:17:51.373Z,123.20
2018-12-29T02:18:51.361Z,118.40
2018-12-29T02:19:51.350Z,121.80
2018-12-29T02:20:51.371Z,127.30
2018-12-29T02:21:51.330Z,122.30
2018-12-29T02:22:51.318Z,115.00
2018-12-29T02:23:51.307Z,119.80
2018-12-29T02:24:51.296Z,131.40
2018-12-29T02:25:51.285Z,125.90
2018-12-29T02:26:51.313Z,119.60
2018-12-29T02:27:51.266Z,119.90
2018-12-29T02:28:51.253Z,121.80
2018-12-29T02:29:51.245Z,120.00
2018-12-29T02:30:51.232Z,114.80
2018-12-29T02:31:51.223Z,117.90
2018-12-29T02:32:51.250Z,115.60
2018-12-29T02:33:51.200Z,119.40
2018-12-29T02:34:51.188Z,117.90
2018-12-29T02:35:51.179Z,121.80
2018-12-29T02:36:51.174Z,114.30
2018-12-29T02:37:51.157Z,114.30
2018-12-29T02:38:51.180Z,119.40
2018-12-29T02:39:51.136Z,120.50
2018-12-29T02:40:51.127Z,116.60
2018-12-29T02:41:51.113Z,125.60
2018-12-29T02:42:51.106Z,125.50
2018-12-29T02:43:51.099Z,126.70
2018-12-29T02:44:51.197Z,122.20
2018-12-29T02:45:51.073Z,126.50
2018-12-29T02:46:51.130Z,123.30
2018-12-29T02:47:51.056Z,124.00
2018-12-29T02:48:51.050Z,130.60
2018-12-29T02:49:51.030Z,120.60
2018-12-29T02:50:51.020Z,123.00
2018-12-29T02:51:51.008Z,116.70
2018-12-29T02:52:51.015Z,122.80
2018-12-29T02:53:50.985Z,120.50
2018-12-29T02:54:50.976Z,123.50
2018-12-29T02:55:50.972Z,120.20
2018-12-29T02:56:50.967Z,121.80
2018-12-29T02:57:50.944Z,118.10
2018-12-29T02:58:50.934Z,118.90
2018-12-29T02:59:50.926Z,122.00
2018-12-29T03:00:50.911Z,114.80
2018-12-29T03:01:50.928Z,123.10
2018-12-29T03:02:50.895Z,124.30
2018-12-29T03:03:50.879Z,129.20
2018-12-29T03:04:50.872Z,124.00
2018-12-29T03:05:50.858Z,121.60
2018-12-29T03:06:50.849Z,120.00
2018-12-29T03:07:50.876Z,113.60
2018-12-29T03:08:50.824Z,115.30
2018-12-29T03:09:50.815Z,122.00
2018-12-29T03:10:50.804Z,123.80
2018-12-29T03:11:50.795Z,112.70
2018-12-29T03:12:50.782Z,115.80
2018-12-29T03:13:50.785Z,113.90
2018-12-29T03:14:50.760Z,117.50
2018-12-29T03:15:50.753Z,118.40
2018-12-29T03:16:50.753Z,118.90
2018-12-29T03:17:50.730Z,115.00
2018-12-29T03:18:50.736Z,112.30
2018-12-29T03:19:50.708Z,120.60
2018-12-29T03:20:50.711Z,107.50
2018-12-29T03:21:50.693Z,113.30
2018-12-29T03:22:50.677Z,110.70
2018-12-29T03:23:50.667Z,114.50
2018-12-29T03:24:50.668Z,118.30
2018-12-29T03:25:50.642Z,113.20
2018-12-29T03:26:50.660Z,113.30
2018-12-29T03:27:50.628Z,123.20
2018-12-29T03:28:50.611Z,109.40
2018-12-29T03:29:50.601Z,128.30
2018-12-29T03:30:50.603Z,124.70
2018-12-29T03:31:50.582Z,128.60
2018-12-29T03:32:50.595Z,127.40
2018-12-29T03:33:50.558Z,131.40
2018-12-29T03:34:50.562Z,140.50
2018-12-29T03:35:50.535Z,143.50
2018-12-29T03:36:50.525Z,144.20
2018-12-29T03:37:50.530Z,142.40
2018-12-29T03:38:50.503Z,149.30
2018-12-29T03:39:50.494Z,130.80
2018-12-29T03:40:50.484Z,149.00
2018-12-29T03:41:50.473Z,139.80
2018-12-29T03:42:50.474Z,142.20
2018-12-29T03:43:50.452Z,137.20
2018-12-29T03:44:50.453Z,135.10
2018-12-29T03:45:50.425Z,139.40
2018-12-29T03:46:50.425Z,136.80
2018-12-29T03:47:50.410Z,136.20
2018-12-29T03:48:50.395Z,123.20
2018-12-29T03:49:50.400Z,130.70
2018-12-29T03:50:50.377Z,134.50
2018-12-29T03:51:50.380Z,127.80
2018-12-29T03:52:50.353Z,124.00
2018-12-29T03:53:50.361Z,126.70
2018-12-29T03:54:50.332Z,134.40
2018-12-29T03:55:50.323Z,125.70
2018-12-29T03:56:50.327Z,124.50
2018-12-29T03:57:50.300Z,137.20
2018-12-29T03:58:50.305Z,127.60
2018-12-29T03:59:50.280Z,121.80
2018-12-29T04:00:50.273Z,115.60
2018-12-29T04:01:50.256Z,122.20
2018-12-29T04:02:50.288Z,124.20
2018-12-29T04:03:50.237Z,123.80
2018-12-29T04:04:50.240Z,135.90
2018-12-29T04:05:50.216Z,123.80
2018-12-29T04:06:50.205Z,117.10
2018-12-29T04:07:50.198Z,116.50
2018-12-29T04:08:50.223Z,128.20
2018-12-29T04:09:50.172Z,129.70
2018-12-29T04:10:50.158Z,125.40
2018-12-29T04:11:50.149Z,132.20
2018-12-29T04:12:50.141Z,119.80
2018-12-29T04:13:50.133Z,127.10
2018-12-29T04:14:50.154Z,132.40
2018-12-29T04:15:57.635Z,131.30
2018-12-29T04:16:51.096Z,116.60
2018-12-29T04:17:50.092Z,116.70
2018-12-29T04:18:50.073Z,118.70
2018-12-29T04:19:50.068Z,130.70
2018-12-29T04:20:50.071Z,130.50
2018-12-29T04:21:50.041Z,133.80
2018-12-29T04:22:50.031Z,129.40
2018-12-29T04:23:50.022Z,132.50
2018-12-29T04:24:50.013Z,135.30
2018-12-29T04:25:50.012Z,141.90
2018-12-29T04:26:49.989Z,133.50
2018-12-29T04:27:49.982Z,127.60
2018-12-29T04:28:49.971Z,134.70
2018-12-29T04:29:49.955Z,125.90
2018-12-29T04:30:49.962Z,138.80
2018-12-29T04:31:49.933Z,131.90
2018-12-29T04:32:49.922Z,136.70
2018-12-29T04:33:49.916Z,131.40
2018-12-29T04:34:49.903Z,131.10
2018-12-29T04:35:49.907Z,136.70
2018-12-29T04:36:49.881Z,131.10
2018-12-29T04:37:49.872Z,138.70
2018-12-29T04:38:49.864Z,142.60
2018-12-29T04:39:49.849Z,151.60
2018-12-29T04:40:49.852Z,139.90
2018-12-29T04:41:49.829Z,138.40
2018-12-29T04:42:49.817Z,135.00
2018-12-29T04:43:49.804Z,138.20
2018-12-29T04:44:49.795Z,126.60
2018-12-29T04:45:49.799Z,135.50
2018-12-29T04:46:49.786Z,136.70
2018-12-29T04:47:49.768Z,131.90
2018-12-29T04:48:49.750Z,132.20
2018-12-29T04:49:49.742Z,125.30
2018-12-29T04:50:49.729Z,122.20
2018-12-29T04:51:49.733Z,135.20
2018-12-29T04:52:49.710Z,127.80
2018-12-29T04:53:49.699Z,133.60
2018-12-29T04:54:49.700Z,135.00
2018-12-29T04:55:49.675Z,133.00
2018-12-29T04:56:49.694Z,138.10
2018-12-29T04:57:49.658Z,144.20
2018-12-29T04:58:49.645Z,131.00
2018-12-29T04:59:49.638Z,137.70
2018-12-29T05:00:49.621Z,134.10
2018-12-29T05:01:49.612Z,135.30
2018-12-29T05:02:49.620Z,133.90
2018-12-29T05:03:49.606Z,141.50
2018-12-29T05:04:49.579Z,138.90
2018-12-29T05:05:49.570Z,133.50
2018-12-29T05:06:49.564Z,135.10
2018-12-29T05:07:49.564Z,135.00
2018-12-29T05:08:49.540Z,131.90
2018-12-29T05:09:49.540Z,136.10
2018-12-29T05:10:49.535Z,144.30
2018-12-29T05:11:49.502Z,131.10
2018-12-29T05:12:49.494Z,135.50
2018-12-29T05:13:49.482Z,131.20
2018-12-29T05:14:49.470Z,143.10
2018-12-29T05:15:49.462Z,150.40
2018-12-29T05:16:49.466Z,146.10
2018-12-29T05:17:49.440Z,136.00
2018-12-29T05:18:49.444Z,141.50
2018-12-29T05:19:49.419Z,146.10
2018-12-29T05:20:49.405Z,138.40
2018-12-29T05:21:49.397Z,133.90
2018-12-29T05:22:49.389Z,141.40
2018-12-29T05:23:49.389Z,147.10
2018-12-29T05:24:49.381Z,138.20
2018-12-29T05:25:49.354Z,135.00
2018-12-29T05:26:49.341Z,128.00
2018-12-29T05:27:49.329Z,133.00
2018-12-29T05:28:49.322Z,140.70
2018-12-29T05:29:49.349Z,130.10
2018-12-29T05:30:49.299Z,146.20
2018-12-29T05:31:49.287Z,142.90
2018-12-29T05:32:49.279Z,137.00
2018-12-29T05:33:49.269Z,133.80
2018-12-29T05:34:49.257Z,137.80
2018-12-29T05:35:49.281Z,136.10
2018-12-29T05:36:49.235Z,135.10
2018-12-29T05:37:49.225Z,139.90
2018-12-29T05:38:49.212Z,136.30
2018-12-29T05:39:49.203Z,143.60
2018-12-29T05:40:49.193Z,144.80
2018-12-29T05:41:49.193Z,141.50
2018-12-29T05:42:49.171Z,144.50
2018-12-29T05:43:49.160Z,152.80
2018-12-29T05:44:49.147Z,138.90
2018-12-29T05:45:49.152Z,141.40
2018-12-29T05:46:49.128Z,141.50
2018-12-29T05:47:49.116Z,143.00
2018-12-29T05:48:49.106Z,146.10
2018-12-29T05:49:49.095Z,149.90
2018-12-29T05:50:49.117Z,140.40
2018-12-29T05:51:49.070Z,149.20
2018-12-29T05:52:49.063Z,138.70
2018-12-29T05:53:49.052Z,143.10
2018-12-29T05:54:49.038Z,155.50
2018-12-29T05:55:49.031Z,150.90
2018-12-29T05:56:49.034Z,140.70
2018-12-29T05:57:49.024Z,152.20
2018-12-29T05:58:48.996Z,149.00
2018-12-29T05:59:48.988Z,152.10
2018-12-29T06:00:48.978Z,142.80
2018-12-29T06:01:48.980Z,149.00
2018-12-29T06:02:48.970Z,143.00
2018-12-29T06:03:48.941Z,138.80
2018-12-29T06:04:48.931Z,153.00
2018-12-29T06:05:48.921Z,134.10
2018-12-29T06:06:48.926Z,148.20
2018-12-29T06:07:48.899Z,144.00
2018-12-29T06:08:48.906Z,146.70
2018-12-29T06:09:48.881Z,142.10
2018-12-29T06:10:48.869Z,147.20
2018-12-29T06:11:48.856Z,131.60
2018-12-29T06:12:48.848Z,140.40
2018-12-29T06:13:48.853Z,142.00
2018-12-29T06:14:48.824Z,136.80
2018-12-29T06:15:48.815Z,144.30
2018-12-29T06:16:48.805Z,142.30
2018-12-29T06:17:48.794Z,140.50
2018-12-29T06:18:48.781Z,140.10
2018-12-29T06:19:48.783Z,154.00
2018-12-29T06:20:48.760Z,142.30
2018-12-29T06:21:48.748Z,139.20
2018-12-29T06:22:48.737Z,141.10
2018-12-29T06:23:48.728Z,134.50
2018-12-29T06:24:48.739Z,132.80
2018-12-29T06:25:48.704Z,142.00
2018-12-29T06:26:48.697Z,133.70
2018-12-29T06:27:48.685Z,134.50
2018-12-29T06:28:48.676Z,141.40
2018-12-29T06:29:48.661Z,142.10
2018-12-29T06:30:48.664Z,142.70
2018-12-29T06:31:48.643Z,143.10
2018-12-29T06:32:48.629Z,145.10
2018-12-29T06:33:48.622Z,144.30
2018-12-29T06:34:48.608Z,145.30
2018-12-29T06:35:48.635Z,149.50
2018-12-29T06:36:48.589Z,140.00
2018-12-29T06:37:48.576Z,144.50
2018-12-29T06:38:48.568Z,146.30
2018-12-29T06:39:48.554Z,146.60
2018-12-29T06:40:48.544Z,155.90
2018-12-29T06:41:48.548Z,147.90
2018-12-29T06:42:48.521Z,144.00
2018-12-29T06:43:48.513Z,158.60
2018-12-29T06:44:48.502Z,163.80
2018-12-29T06:45:48.492Z,167.70
2018-12-29T06:46:48.508Z,174.90
2018-12-29T06:47:48.468Z,179.40
2018-12-29T06:48:48.457Z,165.80
2018-12-29T06:49:48.445Z,172.60
2018-12-29T06:50:48.436Z,173.20
2018-12-29T06:51:48.425Z,162.80
2018-12-29T06:52:48.431Z,178.30
2018-12-29T06:53:48.405Z,167.60
2018-12-29T06:54:48.395Z,182.70
2018-12-29T06:55:48.381Z,171.00
2018-12-29T06:56:48.371Z,166.70
2018-12-29T06:57:48.409Z,177.00
2018-12-29T06:58:48.352Z,176.20
2018-12-29T06:59:48.341Z,176.90
2018-12-29T07:00:48.328Z,171.40
2018-12-29T07:01:48.319Z,179.30
2018-12-29T07:02:48.308Z,160.40
2018-12-29T07:03:48.316Z,167.60
2018-12-29T07:04:48.284Z,161.70
2018-12-29T07:05:48.277Z,166.30
2018-12-29T07:06:48.267Z,163.30
2018-12-29T07:07:48.254Z,164.70
2018-12-29T07:08:48.255Z,158.10
2018-12-29T07:09:48.230Z,168.10
2018-12-29T07:10:48.219Z,154.50
2018-12-29T07:11:48.211Z,177.70
2018-12-29T07:12:48.201Z,170.50
2018-12-29T07:13:48.245Z,159.80
2018-12-29T07:14:48.177Z,175.50
2018-12-29T07:15:48.168Z,156.20
2018-12-29T07:16:48.158Z,163.40
2018-12-29T07:17:48.145Z,164.60
2018-12-29T07:18:48.166Z,166.20
2018-12-29T07:19:48.123Z,173.50
2018-12-29T07:20:48.115Z,177.40
2018-12-29T07:21:48.104Z,166.20
2018-12-29T07:22:48.093Z,166.50
2018-12-29T07:23:48.081Z,173.80
2018-12-29T07:24:48.086Z,166.10
2018-12-29T07:25:48.090Z,173.60
2018-12-29T07:26:48.051Z,173.30
2018-12-29T07:27:48.078Z,177.20
2018-12-29T07:28:48.027Z,174.90
2018-12-29T07:29:48.016Z,178.80
2018-12-29T07:30:48.007Z,175.20
2018-12-29T07:31:48.009Z,186.60
2018-12-29T07:32:48.018Z,174.10
2018-12-29T07:33:47.972Z,178.20
2018-12-29T07:34:48.017Z,175.30
2018-12-29T07:35:47.953Z,173.30
2018-12-29T07:36:47.940Z,203.50
2018-12-29T07:37:47.929Z,178.30
2018-12-29T07:38:47.936Z,189.40
2018-12-29T07:39:47.909Z,172.90
2018-12-29T07:40:47.898Z,181.70
2018-12-29T07:41:47.886Z,180.90
2018-12-29T07:42:47.915Z,194.10
2018-12-29T07:43:47.883Z,198.00
2018-12-29T07:44:47.856Z,190.00
2018-12-29T07:45:47.842Z,194.30
2018-12-29T07:46:49.799Z,207.50
2018-12-29T07:47:47.836Z,194.50
2018-12-29T07:48:47.809Z,183.50
2018-12-29T07:49:47.814Z,183.80
2018-12-29T07:50:47.789Z,154.70
2018-12-29T07:51:47.800Z,155.00
2018-12-29T07:52:47.770Z,183.60
2018-12-29T07:53:47.775Z,157.20
2018-12-29T07:54:47.744Z,167.00
2018-12-29T07:55:47.750Z,184.20
2018-12-29T07:56:47.724Z,189.60
2018-12-29T07:57:47.713Z,183.70
2018-12-29T07:58:47.718Z,182.80
2018-12-29T07:59:47.697Z,206.80
2018-12-29T08:00:47.704Z,205.50
2018-12-29T08:01:47.667Z,176.10
2018-12-29T08:02:47.659Z,235.60
2018-12-29T08:03:47.650Z,204.20
2018-12-29T08:04:47.639Z,194.80
2018-12-29T08:05:47.632Z,230.40
2018-12-29T08:06:47.635Z,203.00
2018-12-29T08:07:47.604Z,197.80
2018-12-29T08:08:47.597Z,215.80
2018-12-29T08:09:47.586Z,225.80
2018-12-29T08:10:47.589Z,210.40
2018-12-29T08:11:47.575Z,209.20
2018-12-29T08:12:47.551Z,231.80
2018-12-29T08:13:47.542Z,243.40
2018-12-29T08:14:47.528Z,242.20
2018-12-29T08:15:47.518Z,277.30
2018-12-29T08:16:47.525Z,272.00
2018-12-29T08:17:47.523Z,230.20
2018-12-29T08:18:47.485Z,252.20
2018-12-29T08:19:47.479Z,249.00
2018-12-29T08:20:47.466Z,264.10
2018-12-29T08:21:47.457Z,351.50
2018-12-29T08:22:47.445Z,240.00
2018-12-29T08:23:47.477Z,291.20
2018-12-29T08:24:47.424Z,303.70
2018-12-29T08:25:47.411Z,316.60
2018-12-29T08:26:47.401Z,229.00
2018-12-29T08:27:47.398Z,265.20
2018-12-29T08:28:47.379Z,294.60
2018-12-29T08:29:47.403Z,274.40
2018-12-29T08:30:47.359Z,291.50
2018-12-29T08:31:47.351Z,291.50
2018-12-29T08:32:47.337Z,303.50
2018-12-29T08:33:47.327Z,312.70
2018-12-29T08:34:47.312Z,302.50
2018-12-29T08:35:47.320Z,351.10
2018-12-29T08:36:47.293Z,292.10
2018-12-29T08:37:47.281Z,339.50
2018-12-29T08:38:47.296Z,265.90
2018-12-29T08:39:47.263Z,281.80
2018-12-29T08:40:47.252Z,299.60
2018-12-29T08:41:47.238Z,367.80
2018-12-29T08:42:47.229Z,326.70
2018-12-29T08:43:47.216Z,412.40
2018-12-29T08:44:47.222Z,429.70
2018-12-29T08:45:47.196Z,332.10
2018-12-29T08:46:47.186Z,334.90
2018-12-29T08:47:47.176Z,332.40
2018-12-29T08:48:47.162Z,367.30
2018-12-29T08:49:47.168Z,314.70
2018-12-29T08:50:47.146Z,353.90
2018-12-29T08:51:47.135Z,328.00
2018-12-29T08:52:47.119Z,308.50
2018-12-29T08:53:47.111Z,274.30
2018-12-29T08:54:47.111Z,252.70
2018-12-29T08:55:47.088Z,402.10
2018-12-29T08:56:47.076Z,368.80
2018-12-29T08:57:47.065Z,332.70
2018-12-29T08:58:47.054Z,307.80
2018-12-29T08:59:47.058Z,432.30
2018-12-29T09:00:47.036Z,371.90
2018-12-29T09:01:47.037Z,275.30
2018-12-29T09:02:47.012Z,364.50
2018-12-29T09:03:47.003Z,407.10
2018-12-29T09:04:47.099Z,406.60
2018-12-29T09:05:47.011Z,336.60
2018-12-29T09:06:46.968Z,373.30
2018-12-29T09:07:46.959Z,333.80
2018-12-29T09:08:46.945Z,298.60
2018-12-29T09:09:46.938Z,393.10
2018-12-29T09:10:46.927Z,282.60
2018-12-29T09:11:46.932Z,418.50
2018-12-29T09:12:46.947Z,414.50
2018-12-29T09:13:46.894Z,345.00
2018-12-29T09:14:46.881Z,418.80
2018-12-29T09:15:46.874Z,515.70
2018-12-29T09:16:46.862Z,360.80
2018-12-29T09:17:46.849Z,339.70
2018-12-29T09:18:49.827Z,345.60
2018-12-29T09:19:46.831Z,423.50
2018-12-29T09:20:46.817Z,317.40
2018-12-29T09:21:46.809Z,390.30
2018-12-29T09:22:46.798Z,387.70
2018-12-29T09:23:46.817Z,324.70
2018-12-29T09:24:46.773Z,408.50
2018-12-29T09:25:46.764Z,365.20
2018-12-29T09:26:46.757Z,410.80
2018-12-29T09:27:46.741Z,398.50
2018-12-29T09:28:46.733Z,380.20
2018-12-29T09:29:46.737Z,502.50
2018-12-29T09:30:46.712Z,393.70
2018-12-29T09:31:46.698Z,321.60
2018-12-29T09:32:46.686Z,403.70
2018-12-29T09:33:46.680Z,400.40
2018-12-29T09:34:46.709Z,366.10
2018-12-29T09:35:46.656Z,405.20
2018-12-29T09:36:46.648Z,347.20
2018-12-29T09:37:46.639Z,522.80
2018-12-29T09:38:46.622Z,362.90
2018-12-29T09:39:46.614Z,497.00
2018-12-29T09:40:46.623Z,385.50
2018-12-29T09:41:46.589Z,360.60
2018-12-29T09:42:46.585Z,309.70
2018-12-29T09:43:46.570Z,398.30
2018-12-29T09:44:46.557Z,395.40
2018-12-29T09:45:46.549Z,390.80
2018-12-29T09:46:46.553Z,425.10
2018-12-29T09:47:46.545Z,506.60
2018-12-29T09:48:46.513Z,483.60
2018-12-29T09:49:46.503Z,379.70
2018-12-29T09:50:46.495Z,474.60
2018-12-29T09:51:46.500Z,509.80
2018-12-29T09:52:46.469Z,341.00
2018-12-29T09:53:46.463Z,326.00
2018-12-29T09:54:46.451Z,395.80
2018-12-29T09:55:46.440Z,401.90
2018-12-29T09:56:46.440Z,398.00
2018-12-29T09:57:46.437Z,455.00
2018-12-29T09:58:46.407Z,424.90
2018-12-29T09:59:46.396Z,441.70
2018-12-29T10:00:46.386Z,386.80
2018-12-29T10:01:46.373Z,491.60
2018-12-29T10:02:46.364Z,507.40
2018-12-29T10:03:46.366Z,406.20
2018-12-29T10:04:46.340Z,412.70
2018-12-29T10:05:46.332Z,412.30
2018-12-29T10:06:46.320Z,386.40
2018-12-29T10:07:46.309Z,530.70
2018-12-29T10:08:46.313Z,385.30
2018-12-29T10:09:46.287Z,370.30
2018-12-29T10:10:46.277Z,410.50
2018-12-29T10:11:46.264Z,455.90
2018-12-29T10:12:46.292Z,478.00
2018-12-29T10:13:46.245Z,486.60
2018-12-29T10:14:46.235Z,434.50
2018-12-29T10:15:46.220Z,551.90
2018-12-29T10:16:46.213Z,365.30
2018-12-29T10:17:46.202Z,428.70
2018-12-29T10:18:46.205Z,401.00
2018-12-29T10:19:46.183Z,384.00
2018-12-29T10:20:46.168Z,461.90
2018-12-29T10:21:46.156Z,391.30
2018-12-29T10:22:46.154Z,458.80
2018-12-29T10:23:46.154Z,421.80
2018-12-29T10:24:46.138Z,529.10
2018-12-29T10:25:46.114Z,484.80
2018-12-29T10:26:46.106Z,355.70
2018-12-29T10:27:46.091Z,514.50
2018-12-29T10:28:46.116Z,433.40
2018-12-29T10:29:46.072Z,480.90
2018-12-29T10:30:46.063Z,378.00
2018-12-29T10:31:46.050Z,420.10
2018-12-29T10:32:46.040Z,470.30
2018-12-29T10:33:46.028Z,408.90
2018-12-29T10:34:46.034Z,381.00
2018-12-29T10:35:46.007Z,415.80
2018-12-29T10:36:45.995Z,429.60
2018-12-29T10:37:45.987Z,401.80
2018-12-29T10:38:45.978Z,379.70
2018-12-29T10:39:46.057Z,355.60
2018-12-29T10:40:45.952Z,397.30
2018-12-29T10:41:45.977Z,374.70
2018-12-29T10:42:45.932Z,367.20
2018-12-29T10:43:45.923Z,392.60
2018-12-29T10:44:45.909Z,394.40
2018-12-29T10:45:45.900Z,358.90
2018-12-29T10:46:45.890Z,374.60
2018-12-29T10:47:45.905Z,361.30
2018-12-29T10:48:45.866Z,332.90
2018-12-29T10:49:45.859Z,341.90
2018-12-29T10:50:45.845Z,343.20
2018-12-29T10:51:45.834Z,346.90
2018-12-29T10:52:45.826Z,322.40
2018-12-29T10:53:45.828Z,364.20
2018-12-29T10:54:45.804Z,358.50
2018-12-29T10:55:45.791Z,335.10
2018-12-29T10:56:45.783Z,310.50
2018-12-29T10:57:45.788Z,345.70
2018-12-29T10:58:45.778Z,358.60
2018-12-29T10:59:45.751Z,326.10
2018-12-29T11:00:45.741Z,368.80
2018-12-29T11:01:45.728Z,353.90
2018-12-29T11:02:45.715Z,331.80
2018-12-29T11:03:45.736Z,291.30
2018-12-29T11:04:45.694Z,342.00
2018-12-29T11:05:45.687Z,334.90
2018-12-29T11:06:45.676Z,343.00
2018-12-29T11:07:45.669Z,347.30
2018-12-29T11:08:45.656Z,339.70
2018-12-29T11:09:45.662Z,324.60
2018-12-29T11:10:45.634Z,311.80
2018-12-29T11:11:45.620Z,332.90
2018-12-29T11:12:45.612Z,330.20
2018-12-29T11:13:45.602Z,352.40
2018-12-29T11:14:45.588Z,332.50
2018-12-29T11:15:45.592Z,324.20
2018-12-29T11:16:45.569Z,316.30
2018-12-29T11:17:45.557Z,325.30
2018-12-29T11:18:45.552Z,313.60
2018-12-29T11:19:45.569Z,318.80
2018-12-29T11:20:45.527Z,272.70
2018-12-29T11:21:45.521Z,304.90
2018-12-29T11:22:45.506Z,314.90
2018-12-29T11:23:45.493Z,303.70
2018-12-29T11:24:45.481Z,303.00
2018-12-29T11:25:45.499Z,275.00
2018-12-29T11:26:45.460Z,294.40
2018-12-29T11:27:45.448Z,288.80
2018-12-29T11:28:46.023Z,269.80
2018-12-29T11:29:45.430Z,272.80
2018-12-29T11:30:45.433Z,228.90
2018-12-29T11:31:45.409Z,228.90
2018-12-29T11:32:45.398Z,273.20
2018-12-29T11:33:45.387Z,274.60
2018-12-29T11:34:45.373Z,268.10
2018-12-29T11:35:45.382Z,265.00
2018-12-29T11:36:45.356Z,238.80
2018-12-29T11:37:45.343Z,249.90
2018-12-29T11:38:45.334Z,273.60
2018-12-29T11:39:45.322Z,248.20
2018-12-29T11:40:45.324Z,216.60
2018-12-29T11:41:45.300Z,208.60
2018-12-29T11:42:45.308Z,242.70
2018-12-29T11:43:45.280Z,246.50
2018-12-29T11:44:45.290Z,245.10
2018-12-29T11:45:45.258Z,237.00
2018-12-29T11:46:45.309Z,214.60
2018-12-29T11:47:49.774Z,227.30
2018-12-29T11:48:45.228Z,196.10
2018-12-29T11:49:45.213Z,233.80
2018-12-29T11:50:45.204Z,249.90
2018-12-29T11:51:45.194Z,236.40
2018-12-29T11:52:45.200Z,227.90
2018-12-29T11:53:45.173Z,239.70
2018-12-29T11:54:45.160Z,229.40
2018-12-29T11:55:45.154Z,203.50
2018-12-29T11:56:45.139Z,177.60
2018-12-29T11:57:45.163Z,228.80
2018-12-29T11:58:45.121Z,227.50
2018-12-29T11:59:45.112Z,228.50
2018-12-29T12:00:45.096Z,192.40
2018-12-29T12:01:45.088Z,218.80
2018-12-29T12:02:45.079Z,219.80
2018-12-29T12:03:45.080Z,221.20
2018-12-29T12:04:45.058Z,177.00
2018-12-29T12:05:45.040Z,190.50
2018-12-29T12:06:45.031Z,218.50
2018-12-29T12:07:45.022Z,205.30
2018-12-29T12:08:45.026Z,210.10
2018-12-29T12:09:45.000Z,176.10
2018-12-29T12:10:44.989Z,205.70
2018-12-29T12:11:44.981Z,209.80
2018-12-29T12:12:44.969Z,199.00
2018-12-29T12:13:44.971Z,197.90
2018-12-29T12:14:44.947Z,179.30
2018-12-29T12:15:44.939Z,205.80
2018-12-29T12:16:44.924Z,196.60
2018-12-29T12:17:44.914Z,196.30
2018-12-29T12:18:44.918Z,203.10
2018-12-29T12:19:44.892Z,166.60
2018-12-29T12:20:44.884Z,194.70
2018-12-29T12:21:44.887Z,137.50
2018-12-29T12:22:44.861Z,174.70
2018-12-29T12:23:44.851Z,173.50
2018-12-29T12:24:44.884Z,155.80
2018-12-29T12:25:44.829Z,179.60
2018-12-29T12:26:44.822Z,170.60
2018-12-29T12:27:44.807Z,165.20
2018-12-29T12:28:44.799Z,164.00